sim
Sign-in with your pilot id or email,
or register
Callsign
Passwort

Schedule Details

Flight Number: OEO6739
Departure: Miami International Airport (KMIA) at 19:45
Arrival: Munich Airport (EDDM) at 05:35

Weather Information
Getting current METAR information for KMIA 250953Z 15003KT 10SM FEW020 SCT180 OVC250 27/26 A2993 RMK AO2 SLP134 T02670256 $
Getting current METAR information for EDDM 251020Z 26005KT 9999 -RA FEW012 SCT020 BKN040 10/08 Q1002 NOSIG

Schedule Frequency

Route Map